sensor_id;sensor_type;location;lat;lon;timestamp;P1;durP1;ratioP1;P2;durP2;ratioP2
70946;SDS011;58605;48.700;8.760;2022-09-09T00:00:43;5.63;;;3.47;;
70946;SDS011;58605;48.700;8.760;2022-09-09T00:03:14;5.10;;;3.30;;
70946;SDS011;58605;48.700;8.760;2022-09-09T00:05:46;7.23;;;3.27;;
70946;SDS011;58605;48.700;8.760;2022-09-09T00:08:19;6.10;;;3.00;;
70946;SDS011;58605;48.700;8.760;2022-09-09T00:10:50;6.33;;;2.97;;
70946;SDS011;58605;48.700;8.760;2022-09-09T00:13:20;6.57;;;2.90;;
70946;SDS011;58605;48.700;8.760;2022-09-09T00:15:53;3.40;;;3.07;;
70946;SDS011;58605;48.700;8.760;2022-09-09T00:18:23;4.23;;;2.67;;
70946;SDS011;58605;48.700;8.760;2022-09-09T00:20:55;6.80;;;3.13;;
70946;SDS011;58605;48.700;8.760;2022-09-09T00:23:28;4.57;;;2.87;;
70946;SDS011;58605;48.700;8.760;2022-09-09T00:26:04;4.00;;;2.87;;
70946;SDS011;58605;48.700;8.760;2022-09-09T00:28:36;2.90;;;2.70;;
70946;SDS011;58605;48.700;8.760;2022-09-09T00:31:09;3.00;;;2.40;;
70946;SDS011;58605;48.700;8.760;2022-09-09T00:33:38;5.73;;;3.00;;
70946;SDS011;58605;48.700;8.760;2022-09-09T00:36:07;4.97;;;2.60;;
70946;SDS011;58605;48.700;8.760;2022-09-09T00:38:39;6.77;;;2.77;;
70946;SDS011;58605;48.700;8.760;2022-09-09T00:41:11;3.77;;;2.57;;
70946;SDS011;58605;48.700;8.760;2022-09-09T00:43:46;5.70;;;2.80;;
70946;SDS011;58605;48.700;8.760;2022-09-09T00:46:25;3.33;;;2.50;;
70946;SDS011;58605;48.700;8.760;2022-09-09T00:49:09;3.87;;;2.73;;
70946;SDS011;58605;48.700;8.760;2022-09-09T00:51:44;4.17;;;2.97;;
70946;SDS011;58605;48.700;8.760;2022-09-09T00:54:28;5.50;;;2.80;;
70946;SDS011;58605;48.700;8.760;2022-09-09T00:59:56;5.67;;;2.87;;
70946;SDS011;58605;48.700;8.760;2022-09-09T01:05:36;4.37;;;2.67;;
70946;SDS011;58605;48.700;8.760;2022-09-09T01:08:09;5.63;;;3.20;;
70946;SDS011;58605;48.700;8.760;2022-09-09T01:10:45;3.40;;;2.70;;
70946;SDS011;58605;48.700;8.760;2022-09-09T01:13:16;6.43;;;3.27;;
70946;SDS011;58605;48.700;8.760;2022-09-09T01:15:47;3.63;;;2.83;;
70946;SDS011;58605;48.700;8.760;2022-09-09T01:18:15;3.63;;;2.70;;
70946;SDS011;58605;48.700;8.760;2022-09-09T01:20:46;4.60;;;3.40;;
70946;SDS011;58605;48.700;8.760;2022-09-09T01:23:30;4.60;;;3.13;;
70946;SDS011;58605;48.700;8.760;2022-09-09T01:26:16;3.83;;;2.90;;
70946;SDS011;58605;48.700;8.760;2022-09-09T01:28:46;3.10;;;2.80;;
70946;SDS011;58605;48.700;8.760;2022-09-09T01:31:15;4.80;;;3.17;;
70946;SDS011;58605;48.700;8.760;2022-09-09T01:33:43;3.23;;;2.93;;
70946;SDS011;58605;48.700;8.760;2022-09-09T01:36:10;4.17;;;2.47;;
70946;SDS011;58605;48.700;8.760;2022-09-09T01:38:40;3.17;;;2.50;;
70946;SDS011;58605;48.700;8.760;2022-09-09T01:41:06;3.73;;;1.80;;
70946;SDS011;58605;48.700;8.760;2022-09-09T01:43:34;2.67;;;1.60;;
70946;SDS011;58605;48.700;8.760;2022-09-09T01:46:00;3.60;;;1.60;;
70946;SDS011;58605;48.700;8.760;2022-09-09T01:48:27;1.93;;;1.50;;
70946;SDS011;58605;48.700;8.760;2022-09-09T01:50:54;2.53;;;1.50;;
70946;SDS011;58605;48.700;8.760;2022-09-09T01:53:21;2.90;;;1.43;;
70946;SDS011;58605;48.700;8.760;2022-09-09T01:55:48;1.40;;;1.30;;
70946;SDS011;58605;48.700;8.760;2022-09-09T01:58:26;2.17;;;1.37;;
70946;SDS011;58605;48.700;8.760;2022-09-09T02:01:02;1.90;;;1.20;;
70946;SDS011;58605;48.700;8.760;2022-09-09T02:03:33;2.87;;;1.33;;
70946;SDS011;58605;48.700;8.760;2022-09-09T02:06:04;3.40;;;1.40;;
70946;SDS011;58605;48.700;8.760;2022-09-09T02:08:40;2.50;;;1.50;;
70946;SDS011;58605;48.700;8.760;2022-09-09T02:11:11;1.40;;;1.30;;
70946;SDS011;58605;48.700;8.760;2022-09-09T02:13:39;4.73;;;1.90;;
70946;SDS011;58605;48.700;8.760;2022-09-09T02:16:08;2.33;;;1.87;;
70946;SDS011;58605;48.700;8.760;2022-09-09T02:18:40;2.10;;;1.53;;
70946;SDS011;58605;48.700;8.760;2022-09-09T02:21:11;1.40;;;1.20;;
70946;SDS011;58605;48.700;8.760;2022-09-09T02:23:39;3.00;;;1.63;;
70946;SDS011;58605;48.700;8.760;2022-09-09T02:26:07;1.47;;;1.23;;
70946;SDS011;58605;48.700;8.760;2022-09-09T02:28:35;3.13;;;1.80;;
70946;SDS011;58605;48.700;8.760;2022-09-09T02:31:03;1.57;;;1.43;;
70946;SDS011;58605;48.700;8.760;2022-09-09T02:33:33;4.07;;;1.77;;
70946;SDS011;58605;48.700;8.760;2022-09-09T02:36:02;3.73;;;1.90;;
70946;SDS011;58605;48.700;8.760;2022-09-09T02:38:32;2.97;;;1.93;;
70946;SDS011;58605;48.700;8.760;2022-09-09T02:41:01;2.53;;;1.67;;
70946;SDS011;58605;48.700;8.760;2022-09-09T02:43:30;2.27;;;1.60;;
70946;SDS011;58605;48.700;8.760;2022-09-09T02:45:58;2.97;;;1.50;;
70946;SDS011;58605;48.700;8.760;2022-09-09T02:48:30;3.73;;;1.70;;
70946;SDS011;58605;48.700;8.760;2022-09-09T02:51:02;2.90;;;1.50;;
70946;SDS011;58605;48.700;8.760;2022-09-09T02:53:37;5.13;;;1.70;;
70946;SDS011;58605;48.700;8.760;2022-09-09T02:56:09;2.67;;;1.90;;
70946;SDS011;58605;48.700;8.760;2022-09-09T02:58:40;3.00;;;2.00;;
70946;SDS011;58605;48.700;8.760;2022-09-09T03:01:07;2.80;;;2.40;;
70946;SDS011;58605;48.700;8.760;2022-09-09T03:03:35;3.40;;;2.10;;
70946;SDS011;58605;48.700;8.760;2022-09-09T03:06:01;4.17;;;2.30;;
70946;SDS011;58605;48.700;8.760;2022-09-09T03:08:27;5.00;;;2.83;;
70946;SDS011;58605;48.700;8.760;2022-09-09T03:10:53;3.73;;;2.67;;
70946;SDS011;58605;48.700;8.760;2022-09-09T03:13:20;4.33;;;2.57;;
70946;SDS011;58605;48.700;8.760;2022-09-09T03:15:47;4.20;;;3.00;;
70946;SDS011;58605;48.700;8.760;2022-09-09T03:18:13;3.97;;;2.97;;
70946;SDS011;58605;48.700;8.760;2022-09-09T03:20:41;3.17;;;2.60;;
70946;SDS011;58605;48.700;8.760;2022-09-09T03:23:08;5.13;;;3.07;;
70946;SDS011;58605;48.700;8.760;2022-09-09T03:25:34;4.03;;;2.40;;
70946;SDS011;58605;48.700;8.760;2022-09-09T03:28:01;2.87;;;2.67;;
70946;SDS011;58605;48.700;8.760;2022-09-09T03:30:27;4.53;;;2.77;;
70946;SDS011;58605;48.700;8.760;2022-09-09T03:32:53;2.83;;;2.63;;
70946;SDS011;58605;48.700;8.760;2022-09-09T03:35:20;5.40;;;2.87;;
70946;SDS011;58605;48.700;8.760;2022-09-09T03:37:47;5.90;;;2.90;;
70946;SDS011;58605;48.700;8.760;2022-09-09T03:40:14;6.67;;;2.97;;
70946;SDS011;58605;48.700;8.760;2022-09-09T03:42:41;4.47;;;2.73;;
70946;SDS011;58605;48.700;8.760;2022-09-09T03:45:07;3.37;;;2.30;;
70946;SDS011;58605;48.700;8.760;2022-09-09T03:47:35;4.87;;;2.30;;
70946;SDS011;58605;48.700;8.760;2022-09-09T03:50:02;2.90;;;1.90;;
70946;SDS011;58605;48.700;8.760;2022-09-09T03:52:31;2.77;;;2.50;;
70946;SDS011;58605;48.700;8.760;2022-09-09T03:55:00;4.03;;;2.50;;
70946;SDS011;58605;48.700;8.760;2022-09-09T03:57:26;4.33;;;2.50;;
70946;SDS011;58605;48.700;8.760;2022-09-09T03:59:52;4.17;;;2.97;;
70946;SDS011;58605;48.700;8.760;2022-09-09T04:02:19;3.37;;;2.73;;
70946;SDS011;58605;48.700;8.760;2022-09-09T04:04:46;3.77;;;2.57;;
70946;SDS011;58605;48.700;8.760;2022-09-09T04:07:12;7.07;;;3.00;;
70946;SDS011;58605;48.700;8.760;2022-09-09T04:09:39;3.17;;;2.60;;
70946;SDS011;58605;48.700;8.760;2022-09-09T04:12:06;4.80;;;2.97;;
70946;SDS011;58605;48.700;8.760;2022-09-09T04:14:32;4.23;;;2.73;;
70946;SDS011;58605;48.700;8.760;2022-09-09T04:16:58;5.77;;;3.63;;
70946;SDS011;58605;48.700;8.760;2022-09-09T04:19:25;4.17;;;2.90;;
70946;SDS011;58605;48.700;8.760;2022-09-09T04:21:51;4.47;;;3.13;;
70946;SDS011;58605;48.700;8.760;2022-09-09T04:24:17;3.23;;;2.87;;
70946;SDS011;58605;48.700;8.760;2022-09-09T04:26:44;3.80;;;3.40;;
70946;SDS011;58605;48.700;8.760;2022-09-09T04:29:12;4.90;;;3.03;;
70946;SDS011;58605;48.700;8.760;2022-09-09T04:31:38;5.30;;;2.60;;
70946;SDS011;58605;48.700;8.760;2022-09-09T04:34:07;4.47;;;2.60;;
70946;SDS011;58605;48.700;8.760;2022-09-09T04:36:33;7.83;;;3.23;;
70946;SDS011;58605;48.700;8.760;2022-09-09T04:39:00;5.00;;;2.80;;
70946;SDS011;58605;48.700;8.760;2022-09-09T04:41:26;5.97;;;2.60;;
70946;SDS011;58605;48.700;8.760;2022-09-09T04:43:52;5.87;;;2.80;;
70946;SDS011;58605;48.700;8.760;2022-09-09T04:46:20;4.30;;;2.60;;
70946;SDS011;58605;48.700;8.760;2022-09-09T04:48:48;4.63;;;2.80;;
70946;SDS011;58605;48.700;8.760;2022-09-09T04:51:14;4.63;;;2.90;;
70946;SDS011;58605;48.700;8.760;2022-09-09T04:53:40;5.93;;;3.10;;
70946;SDS011;58605;48.700;8.760;2022-09-09T04:56:07;4.47;;;2.97;;
70946;SDS011;58605;48.700;8.760;2022-09-09T04:58:35;4.43;;;2.70;;
70946;SDS011;58605;48.700;8.760;2022-09-09T05:01:05;5.40;;;2.70;;
70946;SDS011;58605;48.700;8.760;2022-09-09T05:03:33;3.67;;;2.87;;
70946;SDS011;58605;48.700;8.760;2022-09-09T05:06:03;5.83;;;3.17;;
70946;SDS011;58605;48.700;8.760;2022-09-09T05:08:30;4.87;;;2.93;;
70946;SDS011;58605;48.700;8.760;2022-09-09T05:10:56;3.20;;;2.87;;
70946;SDS011;58605;48.700;8.760;2022-09-09T05:13:22;4.53;;;2.80;;
70946;SDS011;58605;48.700;8.760;2022-09-09T05:15:51;3.73;;;3.00;;
70946;SDS011;58605;48.700;8.760;2022-09-09T05:18:17;4.80;;;3.00;;
70946;SDS011;58605;48.700;8.760;2022-09-09T05:20:45;5.47;;;2.60;;
70946;SDS011;58605;48.700;8.760;2022-09-09T05:23:13;4.07;;;2.80;;
70946;SDS011;58605;48.700;8.760;2022-09-09T05:25:40;4.60;;;3.00;;
70946;SDS011;58605;48.700;8.760;2022-09-09T05:28:07;3.47;;;2.83;;
70946;SDS011;58605;48.700;8.760;2022-09-09T05:30:33;4.17;;;3.03;;
70946;SDS011;58605;48.700;8.760;2022-09-09T05:32:59;6.97;;;3.20;;
70946;SDS011;58605;48.700;8.760;2022-09-09T05:35:26;3.13;;;2.83;;
70946;SDS011;58605;48.700;8.760;2022-09-09T05:37:54;3.47;;;2.83;;
70946;SDS011;58605;48.700;8.760;2022-09-09T05:40:24;3.77;;;3.00;;
70946;SDS011;58605;48.700;8.760;2022-09-09T05:42:50;4.03;;;2.70;;
70946;SDS011;58605;48.700;8.760;2022-09-09T05:45:17;3.50;;;2.70;;
70946;SDS011;58605;48.700;8.760;2022-09-09T05:47:45;3.87;;;2.77;;
70946;SDS011;58605;48.700;8.760;2022-09-09T05:50:18;4.47;;;3.00;;
70946;SDS011;58605;48.700;8.760;2022-09-09T05:52:44;3.87;;;2.50;;
70946;SDS011;58605;48.700;8.760;2022-09-09T05:55:11;3.07;;;2.47;;
70946;SDS011;58605;48.700;8.760;2022-09-09T05:57:37;2.40;;;2.20;;
70946;SDS011;58605;48.700;8.760;2022-09-09T06:00:04;7.03;;;2.43;;
70946;SDS011;58605;48.700;8.760;2022-09-09T06:02:31;4.00;;;2.43;;
70946;SDS011;58605;48.700;8.760;2022-09-09T06:04:58;2.50;;;2.30;;
70946;SDS011;58605;48.700;8.760;2022-09-09T06:07:27;3.83;;;2.60;;
70946;SDS011;58605;48.700;8.760;2022-09-09T06:09:53;3.63;;;2.50;;
70946;SDS011;58605;48.700;8.760;2022-09-09T06:12:21;3.57;;;2.73;;
70946;SDS011;58605;48.700;8.760;2022-09-09T06:14:47;5.63;;;2.67;;
70946;SDS011;58605;48.700;8.760;2022-09-09T06:17:13;4.23;;;2.77;;
70946;SDS011;58605;48.700;8.760;2022-09-09T06:19:39;4.57;;;2.63;;
70946;SDS011;58605;48.700;8.760;2022-09-09T06:22:04;4.53;;;3.47;;
70946;SDS011;58605;48.700;8.760;2022-09-09T06:24:30;5.80;;;2.53;;
70946;SDS011;58605;48.700;8.760;2022-09-09T06:26:58;4.80;;;2.90;;
70946;SDS011;58605;48.700;8.760;2022-09-09T06:29:26;3.57;;;2.80;;
70946;SDS011;58605;48.700;8.760;2022-09-09T06:31:53;2.70;;;2.37;;
70946;SDS011;58605;48.700;8.760;2022-09-09T06:34:21;3.93;;;2.77;;
70946;SDS011;58605;48.700;8.760;2022-09-09T06:36:48;5.00;;;2.73;;
70946;SDS011;58605;48.700;8.760;2022-09-09T06:39:14;5.20;;;3.07;;
70946;SDS011;58605;48.700;8.760;2022-09-09T06:41:40;3.80;;;2.60;;
70946;SDS011;58605;48.700;8.760;2022-09-09T06:44:07;4.53;;;2.60;;
70946;SDS011;58605;48.700;8.760;2022-09-09T06:46:35;6.20;;;3.00;;
70946;SDS011;58605;48.700;8.760;2022-09-09T06:49:01;3.30;;;2.43;;
70946;SDS011;58605;48.700;8.760;2022-09-09T06:51:28;4.97;;;2.83;;
70946;SDS011;58605;48.700;8.760;2022-09-09T06:53:56;3.10;;;2.80;;
70946;SDS011;58605;48.700;8.760;2022-09-09T06:56:23;3.40;;;3.00;;
70946;SDS011;58605;48.700;8.760;2022-09-09T06:58:52;3.80;;;2.97;;
70946;SDS011;58605;48.700;8.760;2022-09-09T07:01:20;3.20;;;2.90;;
70946;SDS011;58605;48.700;8.760;2022-09-09T07:03:50;4.17;;;2.47;;
70946;SDS011;58605;48.700;8.760;2022-09-09T07:06:17;4.73;;;3.00;;
70946;SDS011;58605;48.700;8.760;2022-09-09T07:08:48;4.23;;;2.50;;
70946;SDS011;58605;48.700;8.760;2022-09-09T07:11:16;2.87;;;2.37;;
70946;SDS011;58605;48.700;8.760;2022-09-09T07:13:43;3.97;;;2.70;;
70946;SDS011;58605;48.700;8.760;2022-09-09T07:16:09;5.63;;;2.37;;
70946;SDS011;58605;48.700;8.760;2022-09-09T07:18:37;4.10;;;2.10;;
70946;SDS011;58605;48.700;8.760;2022-09-09T07:21:05;4.03;;;2.47;;
70946;SDS011;58605;48.700;8.760;2022-09-09T07:23:31;2.57;;;1.97;;
70946;SDS011;58605;48.700;8.760;2022-09-09T07:25:58;3.27;;;2.37;;
70946;SDS011;58605;48.700;8.760;2022-09-09T07:28:24;3.40;;;2.10;;
70946;SDS011;58605;48.700;8.760;2022-09-09T07:30:54;2.57;;;2.00;;
70946;SDS011;58605;48.700;8.760;2022-09-09T07:33:21;3.70;;;2.23;;
70946;SDS011;58605;48.700;8.760;2022-09-09T07:35:47;5.33;;;2.37;;
70946;SDS011;58605;48.700;8.760;2022-09-09T07:38:14;7.00;;;2.40;;
70946;SDS011;58605;48.700;8.760;2022-09-09T07:40:40;3.63;;;2.60;;
70946;SDS011;58605;48.700;8.760;2022-09-09T07:43:13;6.10;;;2.30;;
70946;SDS011;58605;48.700;8.760;2022-09-09T07:45:41;3.42;;;2.08;;
70946;SDS011;58605;48.700;8.760;2022-09-09T07:48:08;2.87;;;2.00;;
70946;SDS011;58605;48.700;8.760;2022-09-09T07:50:34;4.65;;;2.00;;
70946;SDS011;58605;48.700;8.760;2022-09-09T07:53:00;2.70;;;1.80;;
70946;SDS011;58605;48.700;8.760;2022-09-09T07:55:29;3.08;;;2.05;;
70946;SDS011;58605;48.700;8.760;2022-09-09T07:57:55;2.93;;;1.90;;
70946;SDS011;58605;48.700;8.760;2022-09-09T08:00:21;2.33;;;2.03;;
70946;SDS011;58605;48.700;8.760;2022-09-09T08:02:55;2.92;;;2.10;;
70946;SDS011;58605;48.700;8.760;2022-09-09T08:05:21;2.57;;;1.80;;
70946;SDS011;58605;48.700;8.760;2022-09-09T08:07:47;2.93;;;2.00;;
70946;SDS011;58605;48.700;8.760;2022-09-09T08:10:13;2.17;;;1.80;;
70946;SDS011;58605;48.700;8.760;2022-09-09T08:12:42;3.03;;;2.08;;
70946;SDS011;58605;48.700;8.760;2022-09-09T08:15:08;3.33;;;2.05;;
70946;SDS011;58605;48.700;8.760;2022-09-09T08:17:34;3.53;;;2.00;;
70946;SDS011;58605;48.700;8.760;2022-09-09T08:20:03;3.85;;;1.90;;
70946;SDS011;58605;48.700;8.760;2022-09-09T08:22:30;2.80;;;1.90;;
70946;SDS011;58605;48.700;8.760;2022-09-09T08:24:56;3.75;;;2.03;;
70946;SDS011;58605;48.700;8.760;2022-09-09T08:27:22;3.37;;;1.93;;
70946;SDS011;58605;48.700;8.760;2022-09-09T08:29:50;2.80;;;2.00;;
70946;SDS011;58605;48.700;8.760;2022-09-09T08:32:16;3.53;;;2.28;;
70946;SDS011;58605;48.700;8.760;2022-09-09T08:34:44;2.00;;;1.70;;
70946;SDS011;58605;48.700;8.760;2022-09-09T08:37:10;2.90;;;2.03;;
70946;SDS011;58605;48.700;8.760;2022-09-09T08:39:38;3.60;;;2.40;;
70946;SDS011;58605;48.700;8.760;2022-09-09T08:42:11;1.92;;;1.55;;
70946;SDS011;58605;48.700;8.760;2022-09-09T08:44:57;2.28;;;1.65;;
70946;SDS011;58605;48.700;8.760;2022-09-09T08:47:47;3.88;;;1.95;;
70946;SDS011;58605;48.700;8.760;2022-09-09T08:50:22;3.60;;;1.95;;
70946;SDS011;58605;48.700;8.760;2022-09-09T08:52:55;4.30;;;1.80;;
70946;SDS011;58605;48.700;8.760;2022-09-09T08:55:28;2.97;;;1.70;;
70946;SDS011;58605;48.700;8.760;2022-09-09T08:58:08;4.30;;;1.88;;
70946;SDS011;58605;48.700;8.760;2022-09-09T09:00:42;5.07;;;1.90;;
70946;SDS011;58605;48.700;8.760;2022-09-09T09:03:22;2.17;;;1.73;;
70946;SDS011;58605;48.700;8.760;2022-09-09T09:05:57;2.80;;;1.90;;
70946;SDS011;58605;48.700;8.760;2022-09-09T09:08:31;4.18;;;1.95;;
70946;SDS011;58605;48.700;8.760;2022-09-09T09:11:06;2.08;;;1.55;;
70946;SDS011;58605;48.700;8.760;2022-09-09T09:13:33;2.50;;;1.95;;
70946;SDS011;58605;48.700;8.760;2022-09-09T09:16:06;3.50;;;1.80;;
70946;SDS011;58605;48.700;8.760;2022-09-09T09:18:41;2.95;;;1.75;;
70946;SDS011;58605;48.700;8.760;2022-09-09T09:21:08;2.55;;;1.70;;
70946;SDS011;58605;48.700;8.760;2022-09-09T09:23:40;4.97;;;2.00;;
70946;SDS011;58605;48.700;8.760;2022-09-09T09:26:14;3.15;;;1.70;;
70946;SDS011;58605;48.700;8.760;2022-09-09T09:28:40;3.08;;;1.98;;
70946;SDS011;58605;48.700;8.760;2022-09-09T09:31:09;3.63;;;1.65;;
70946;SDS011;58605;48.700;8.760;2022-09-09T09:33:38;3.90;;;1.88;;
70946;SDS011;58605;48.700;8.760;2022-09-09T09:36:11;1.88;;;1.50;;
70946;SDS011;58605;48.700;8.760;2022-09-09T09:38:40;2.25;;;1.55;;
70946;SDS011;58605;48.700;8.760;2022-09-09T09:41:28;3.03;;;1.67;;
70946;SDS011;58605;48.700;8.760;2022-09-09T09:43:55;2.88;;;1.60;;
70946;SDS011;58605;48.700;8.760;2022-09-09T09:46:23;6.22;;;1.90;;
70946;SDS011;58605;48.700;8.760;2022-09-09T09:48:56;3.88;;;1.77;;
70946;SDS011;58605;48.700;8.760;2022-09-09T09:51:22;3.25;;;1.60;;
70946;SDS011;58605;48.700;8.760;2022-09-09T09:53:49;3.33;;;1.80;;
70946;SDS011;58605;48.700;8.760;2022-09-09T09:56:17;5.28;;;1.92;;
70946;SDS011;58605;48.700;8.760;2022-09-09T09:58:53;2.92;;;1.80;;
70946;SDS011;58605;48.700;8.760;2022-09-09T10:01:21;3.42;;;1.60;;
70946;SDS011;58605;48.700;8.760;2022-09-09T10:03:50;4.05;;;2.15;;
70946;SDS011;58605;48.700;8.760;2022-09-09T10:06:28;4.47;;;2.00;;
70946;SDS011;58605;48.700;8.760;2022-09-09T10:08:55;6.50;;;2.00;;
70946;SDS011;58605;48.700;8.760;2022-09-09T10:11:24;2.72;;;1.70;;
70946;SDS011;58605;48.700;8.760;2022-09-09T10:13:58;4.18;;;1.75;;
70946;SDS011;58605;48.700;8.760;2022-09-09T10:16:34;2.28;;;1.58;;
70946;SDS011;58605;48.700;8.760;2022-09-09T10:19:10;2.40;;;1.70;;
70946;SDS011;58605;48.700;8.760;2022-09-09T10:21:47;2.90;;;1.60;;
70946;SDS011;58605;48.700;8.760;2022-09-09T10:24:32;2.10;;;1.65;;
70946;SDS011;58605;48.700;8.760;2022-09-09T10:27:23;3.35;;;1.63;;
70946;SDS011;58605;48.700;8.760;2022-09-09T10:30:00;2.65;;;1.65;;
70946;SDS011;58605;48.700;8.760;2022-09-09T10:35:26;1.45;;;1.33;;
70946;SDS011;58605;48.700;8.760;2022-09-09T10:38:00;2.80;;;1.48;;
70946;SDS011;58605;48.700;8.760;2022-09-09T10:40:37;1.60;;;1.50;;
70946;SDS011;58605;48.700;8.760;2022-09-09T10:43:10;2.40;;;1.23;;
70946;SDS011;58605;48.700;8.760;2022-09-09T10:45:48;2.30;;;1.67;;
70946;SDS011;58605;48.700;8.760;2022-09-09T10:48:25;5.80;;;1.58;;
70946;SDS011;58605;48.700;8.760;2022-09-09T10:50:58;2.30;;;1.40;;
70946;SDS011;58605;48.700;8.760;2022-09-09T10:53:35;2.40;;;1.60;;
70946;SDS011;58605;48.700;8.760;2022-09-09T10:56:08;3.05;;;1.38;;
70946;SDS011;58605;48.700;8.760;2022-09-09T10:58:38;2.37;;;1.83;;
70946;SDS011;58605;48.700;8.760;2022-09-09T11:01:11;1.80;;;1.27;;
70946;SDS011;58605;48.700;8.760;2022-09-09T11:03:43;1.60;;;1.30;;
70946;SDS011;58605;48.700;8.760;2022-09-09T11:06:14;1.40;;;1.20;;
70946;SDS011;58605;48.700;8.760;2022-09-09T11:08:42;1.55;;;1.30;;
70946;SDS011;58605;48.700;8.760;2022-09-09T11:11:10;1.80;;;1.30;;
70946;SDS011;58605;48.700;8.760;2022-09-09T11:13:42;2.57;;;1.37;;
70946;SDS011;58605;48.700;8.760;2022-09-09T11:16:20;1.35;;;1.25;;
70946;SDS011;58605;48.700;8.760;2022-09-09T11:18:52;1.40;;;1.30;;
70946;SDS011;58605;48.700;8.760;2022-09-09T11:21:25;2.53;;;1.55;;
70946;SDS011;58605;48.700;8.760;2022-09-09T11:23:55;2.83;;;1.70;;
70946;SDS011;58605;48.700;8.760;2022-09-09T11:26:28;2.20;;;1.35;;
70946;SDS011;58605;48.700;8.760;2022-09-09T11:29:02;2.35;;;1.40;;
70946;SDS011;58605;48.700;8.760;2022-09-09T11:31:50;2.83;;;1.52;;
70946;SDS011;58605;48.700;8.760;2022-09-09T11:34:31;2.28;;;1.45;;
70946;SDS011;58605;48.700;8.760;2022-09-09T11:39:57;2.58;;;1.80;;
70946;SDS011;58605;48.700;8.760;2022-09-09T11:42:34;1.38;;;1.25;;
70946;SDS011;58605;48.700;8.760;2022-09-09T11:45:08;4.75;;;1.52;;
70946;SDS011;58605;48.700;8.760;2022-09-09T11:47:36;1.67;;;1.40;;
70946;SDS011;58605;48.700;8.760;2022-09-09T11:50:22;1.48;;;1.20;;
70946;SDS011;58605;48.700;8.760;2022-09-09T11:53:03;1.08;;;1.00;;
70946;SDS011;58605;48.700;8.760;2022-09-09T11:55:40;2.17;;;1.27;;
70946;SDS011;58605;48.700;8.760;2022-09-09T11:58:14;1.85;;;1.75;;
70946;SDS011;58605;48.700;8.760;2022-09-09T12:00:42;1.05;;;1.00;;
70946;SDS011;58605;48.700;8.760;2022-09-09T12:03:28;1.38;;;1.08;;
70946;SDS011;58605;48.700;8.760;2022-09-09T12:06:09;3.10;;;1.13;;
70946;SDS011;58605;48.700;8.760;2022-09-09T12:08:41;1.85;;;1.65;;
70946;SDS011;58605;48.700;8.760;2022-09-09T12:11:09;1.60;;;1.25;;
70946;SDS011;58605;48.700;8.760;2022-09-09T12:13:36;1.40;;;1.25;;
70946;SDS011;58605;48.700;8.760;2022-09-09T12:16:02;2.10;;;1.20;;
70946;SDS011;58605;48.700;8.760;2022-09-09T12:18:32;2.25;;;1.20;;
70946;SDS011;58605;48.700;8.760;2022-09-09T12:21:01;1.30;;;1.20;;
70946;SDS011;58605;48.700;8.760;2022-09-09T12:23:39;4.05;;;1.60;;
70946;SDS011;58605;48.700;8.760;2022-09-09T12:26:20;2.30;;;1.42;;
70946;SDS011;58605;48.700;8.760;2022-09-09T12:28:54;1.58;;;1.20;;
70946;SDS011;58605;48.700;8.760;2022-09-09T12:31:30;2.22;;;1.30;;
70946;SDS011;58605;48.700;8.760;2022-09-09T12:34:09;1.85;;;1.10;;
70946;SDS011;58605;48.700;8.760;2022-09-09T12:36:37;1.38;;;1.10;;
70946;SDS011;58605;48.700;8.760;2022-09-09T12:39:14;3.58;;;1.50;;
70946;SDS011;58605;48.700;8.760;2022-09-09T12:41:50;1.73;;;1.27;;
70946;SDS011;58605;48.700;8.760;2022-09-09T12:44:21;1.65;;;1.30;;
70946;SDS011;58605;48.700;8.760;2022-09-09T12:46:47;1.55;;;1.45;;
70946;SDS011;58605;48.700;8.760;2022-09-09T12:49:24;3.05;;;1.30;;
70946;SDS011;58605;48.700;8.760;2022-09-09T12:51:53;2.08;;;1.50;;
70946;SDS011;58605;48.700;8.760;2022-09-09T12:54:21;2.38;;;1.42;;
70946;SDS011;58605;48.700;8.760;2022-09-09T12:56:47;3.47;;;1.33;;
70946;SDS011;58605;48.700;8.760;2022-09-09T12:59:21;3.08;;;1.63;;
70946;SDS011;58605;48.700;8.760;2022-09-09T13:01:54;2.70;;;1.30;;
70946;SDS011;58605;48.700;8.760;2022-09-09T13:04:21;3.67;;;1.58;;
70946;SDS011;58605;48.700;8.760;2022-09-09T13:06:47;3.70;;;1.48;;
70946;SDS011;58605;48.700;8.760;2022-09-09T13:09:14;3.40;;;1.35;;
70946;SDS011;58605;48.700;8.760;2022-09-09T13:11:43;2.92;;;1.13;;
70946;SDS011;58605;48.700;8.760;2022-09-09T13:14:13;1.92;;;1.75;;
70946;SDS011;58605;48.700;8.760;2022-09-09T13:16:53;3.72;;;1.55;;
70946;SDS011;58605;48.700;8.760;2022-09-09T13:19:21;4.90;;;1.75;;
70946;SDS011;58605;48.700;8.760;2022-09-09T13:21:47;2.97;;;1.33;;
70946;SDS011;58605;48.700;8.760;2022-09-09T13:24:23;1.27;;;1.02;;
70946;SDS011;58605;48.700;8.760;2022-09-09T13:26:58;3.92;;;1.23;;
70946;SDS011;58605;48.700;8.760;2022-09-09T13:29:27;1.85;;;1.38;;
70946;SDS011;58605;48.700;8.760;2022-09-09T13:31:53;2.53;;;1.60;;
70946;SDS011;58605;48.700;8.760;2022-09-09T13:34:28;2.42;;;1.63;;
70946;SDS011;58605;48.700;8.760;2022-09-09T13:39:26;2.38;;;1.25;;
70946;SDS011;58605;48.700;8.760;2022-09-09T13:41:52;1.83;;;1.17;;
70946;SDS011;58605;48.700;8.760;2022-09-09T13:44:21;2.95;;;1.50;;
70946;SDS011;58605;48.700;8.760;2022-09-09T13:46:58;1.30;;;1.20;;
70946;SDS011;58605;48.700;8.760;2022-09-09T13:49:27;3.05;;;1.33;;
70946;SDS011;58605;48.700;8.760;2022-09-09T13:52:02;1.63;;;1.30;;
70946;SDS011;58605;48.700;8.760;2022-09-09T13:54:32;3.08;;;1.30;;
70946;SDS011;58605;48.700;8.760;2022-09-09T13:56:58;1.60;;;1.20;;
70946;SDS011;58605;48.700;8.760;2022-09-09T13:59:26;1.80;;;1.08;;
70946;SDS011;58605;48.700;8.760;2022-09-09T14:01:52;2.72;;;1.50;;
70946;SDS011;58605;48.700;8.760;2022-09-09T14:04:19;1.40;;;1.10;;
70946;SDS011;58605;48.700;8.760;2022-09-09T14:06:48;2.15;;;1.40;;
70946;SDS011;58605;48.700;8.760;2022-09-09T14:09:16;2.45;;;1.20;;
70946;SDS011;58605;48.700;8.760;2022-09-09T14:11:43;2.45;;;1.48;;
70946;SDS011;58605;48.700;8.760;2022-09-09T14:14:10;2.20;;;1.30;;
70946;SDS011;58605;48.700;8.760;2022-09-09T14:16:38;1.73;;;1.20;;
70946;SDS011;58605;48.700;8.760;2022-09-09T14:19:04;2.83;;;1.15;;
70946;SDS011;58605;48.700;8.760;2022-09-09T14:21:30;2.13;;;1.40;;
70946;SDS011;58605;48.700;8.760;2022-09-09T14:23:57;5.10;;;1.75;;
70946;SDS011;58605;48.700;8.760;2022-09-09T14:26:23;2.72;;;1.17;;
70946;SDS011;58605;48.700;8.760;2022-09-09T14:28:50;1.38;;;1.10;;
70946;SDS011;58605;48.700;8.760;2022-09-09T14:31:17;2.03;;;1.40;;
70946;SDS011;58605;48.700;8.760;2022-09-09T14:33:52;3.15;;;1.50;;
70946;SDS011;58605;48.700;8.760;2022-09-09T14:36:19;2.00;;;1.27;;
70946;SDS011;58605;48.700;8.760;2022-09-09T14:38:45;2.25;;;1.48;;
70946;SDS011;58605;48.700;8.760;2022-09-09T14:41:12;2.17;;;1.20;;
70946;SDS011;58605;48.700;8.760;2022-09-09T14:43:42;2.70;;;1.00;;
70946;SDS011;58605;48.700;8.760;2022-09-09T14:46:09;1.77;;;1.25;;
70946;SDS011;58605;48.700;8.760;2022-09-09T14:48:36;4.07;;;1.30;;
70946;SDS011;58605;48.700;8.760;2022-09-09T14:51:07;1.15;;;1.05;;
70946;SDS011;58605;48.700;8.760;2022-09-09T14:53:33;1.50;;;1.30;;
70946;SDS011;58605;48.700;8.760;2022-09-09T14:56:03;2.63;;;1.40;;
70946;SDS011;58605;48.700;8.760;2022-09-09T14:58:31;1.80;;;1.35;;
70946;SDS011;58605;48.700;8.760;2022-09-09T15:01:01;2.20;;;1.30;;
70946;SDS011;58605;48.700;8.760;2022-09-09T15:03:28;1.95;;;1.27;;
70946;SDS011;58605;48.700;8.760;2022-09-09T15:05:54;2.45;;;1.45;;
70946;SDS011;58605;48.700;8.760;2022-09-09T15:08:21;4.20;;;1.70;;
70946;SDS011;58605;48.700;8.760;2022-09-09T15:10:47;2.40;;;1.58;;
70946;SDS011;58605;48.700;8.760;2022-09-09T15:13:14;2.67;;;1.45;;
70946;SDS011;58605;48.700;8.760;2022-09-09T15:15:42;3.63;;;1.50;;
70946;SDS011;58605;48.700;8.760;2022-09-09T15:18:09;1.95;;;1.48;;